Time;durP1;ratioP1;P1;durP2;ratioP2;P2;SDS_P1;SDS_P2;PMS_P1;PMS_P2;Temp;Humidity;BMP_temperature;BMP_pressure;BME280_temperature;BME280_humidity;BME280_pressure;Samples;Min_cycle;Max_cycle;Signal;HPM_P1;HPM_P2
2020/12/31 00:02:13;;;;;;;2.73;2.10;;;17.30;56.80;;;;;;5047813;28;20206;-55
2020/12/31 00:04:40;;;;;;;3.57;2.00;;;17.30;56.80;;;;;;5037163;28;20662;-55
2020/12/31 00:07:08;;;;;;;2.13;1.70;;;17.20;56.70;;;;;;5045401;28;20260;-57
2020/12/31 00:09:35;;;;;;;2.10;1.20;;;17.20;56.70;;;;;;5034949;28;20678;-57
2020/12/31 00:12:06;;;;;;;2.63;2.10;;;17.20;56.60;;;;;;5044964;28;20233;-57
2020/12/31 00:14:32;;;;;;;1.93;1.50;;;17.20;56.70;;;;;;5036700;28;20215;-55
2020/12/31 00:16:59;;;;;;;4.33;1.60;;;17.20;56.80;;;;;;5047032;28;20202;-57
2020/12/31 00:19:25;;;;;;;25.87;2.00;;;17.20;57.60;;;;;;5034131;28;21222;-56
2020/12/31 00:21:51;;;;;;;16.50;1.93;;;17.30;58.20;;;;;;5028613;28;20213;-55
2020/12/31 00:24:18;;;;;;;11.87;1.70;;;17.40;57.40;;;;;;5035209;28;20713;-55
2020/12/31 00:26:44;;;;;;;6.10;1.57;;;17.40;57.20;;;;;;5049135;28;20209;-54
2020/12/31 00:29:10;;;;;;;2.80;1.20;;;17.40;56.90;;;;;;5036502;28;20264;-55
2020/12/31 00:31:36;;;;;;;1.77;1.43;;;17.40;56.70;;;;;;5044583;28;20676;-56
2020/12/31 00:34:03;;;;;;;1.70;1.40;;;17.30;56.60;;;;;;5038434;28;20225;-56
2020/12/31 00:36:29;;;;;;;1.27;1.10;;;17.30;56.50;;;;;;5046021;28;20194;-54
2020/12/31 00:38:56;;;;;;;1.90;1.07;;;17.30;56.50;;;;;;5045452;28;20855;-54
2020/12/31 00:41:22;;;;;;;1.60;1.17;;;17.20;56.40;;;;;;5038604;28;20205;-55
2020/12/31 00:43:49;;;;;;;2.03;1.10;;;17.20;56.50;;;;;;5044788;28;20220;-55
2020/12/31 00:46:15;;;;;;;1.10;1.00;;;17.20;56.50;;;;;;5037216;28;20256;-55
2020/12/31 00:48:42;;;;;;;1.23;1.13;;;17.20;56.50;;;;;;5045676;28;20197;-55
2020/12/31 00:51:09;;;;;;;1.70;1.13;;;17.20;56.40;;;;;;5036197;28;20309;-55
2020/12/31 00:53:35;;;;;;;2.47;1.10;;;17.10;56.40;;;;;;5046307;28;20210;-55
2020/12/31 00:56:02;;;;;;;1.13;0.87;;;17.10;56.50;;;;;;5035236;28;20202;-56
2020/12/31 00:58:28;;;;;;;1.27;1.10;;;17.10;56.50;;;;;;5046386;28;20556;-56
2020/12/31 01:00:55;;;;;;;1.40;1.20;;;17.10;56.60;;;;;;5035856;28;20214;-56
2020/12/31 01:03:21;;;;;;;1.40;1.20;;;17.10;56.50;;;;;;5046443;28;20210;-56
2020/12/31 01:05:47;;;;;;;1.00;0.90;;;17.10;56.60;;;;;;5037922;28;20198;-56
2020/12/31 01:08:13;;;;;;;1.73;1.00;;;17.10;56.60;;;;;;5046704;28;20575;-54
2020/12/31 01:10:40;;;;;;;1.30;1.00;;;17.00;56.60;;;;;;5037032;28;20214;-54
2020/12/31 01:13:06;;;;;;;1.63;1.10;;;17.00;56.60;;;;;;5047143;28;20202;-56
2020/12/31 01:15:32;;;;;;;0.90;0.80;;;17.00;56.70;;;;;;5040136;28;20191;-56
2020/12/31 01:17:59;;;;;;;0.77;0.70;;;17.00;56.80;;;;;;5039650;28;20198;-54
2020/12/31 01:20:25;;;;;;;1.83;0.90;;;17.00;56.80;;;;;;5040578;28;20203;-54
2020/12/31 01:22:53;;;;;;;1.33;1.13;;;17.00;56.80;;;;;;5038157;28;20198;-56
2020/12/31 01:25:20;;;;;;;1.13;0.80;;;17.00;56.80;;;;;;5042759;28;20615;-56
2020/12/31 01:27:46;;;;;;;0.60;0.60;;;16.90;56.80;;;;;;5041563;28;20221;-56
2020/12/31 01:30:13;;;;;;;0.70;0.63;;;16.90;56.90;;;;;;5047537;28;20229;-56
2020/12/31 01:32:39;;;;;;;0.70;0.70;;;16.90;56.80;;;;;;5040219;28;20197;-56
2020/12/31 01:35:05;;;;;;;0.73;0.70;;;16.90;56.90;;;;;;5050200;28;20667;-55
2020/12/31 01:37:32;;;;;;;1.03;0.93;;;16.90;56.90;;;;;;5023676;28;20651;-56
2020/12/31 01:39:58;;;;;;;1.13;0.70;;;16.90;56.80;;;;;;5045553;28;20536;-56
2020/12/31 01:42:24;;;;;;;1.20;1.00;;;16.90;56.90;;;;;;5040896;28;20758;-56
2020/12/31 01:44:50;;;;;;;0.60;0.60;;;16.90;57.00;;;;;;5048554;28;20775;-56
2020/12/31 01:47:17;;;;;;;0.80;0.80;;;16.90;56.90;;;;;;5040145;28;20579;-56
2020/12/31 01:49:45;;;;;;;2.60;0.50;;;16.90;56.90;;;;;;5047571;28;20217;-56
2020/12/31 01:52:14;;;;;;;1.07;0.50;;;16.80;56.80;;;;;;5041998;28;20214;-56
2020/12/31 01:54:45;;;;;;;0.60;0.60;;;16.90;57.00;;;;;;5049103;28;20210;-54
2020/12/31 01:57:11;;;;;;;0.87;0.87;;;16.80;56.90;;;;;;5046930;28;20190;-54
2020/12/31 01:59:38;;;;;;;0.90;0.70;;;16.90;56.90;;;;;;5039748;28;20289;-57
2020/12/31 02:02:07;;;;;;;1.00;0.50;;;16.80;56.80;;;;;;5045259;28;20202;-56
2020/12/31 02:04:38;;;;;;;0.90;0.80;;;16.90;57.00;;;;;;5038844;28;20225;-55
2020/12/31 02:07:08;;;;;;;0.70;0.70;;;16.80;56.90;;;;;;5048504;28;20202;-56
2020/12/31 02:09:34;;;;;;;1.07;0.80;;;16.80;56.90;;;;;;5040086;28;20215;-55
2020/12/31 02:12:02;;;;;;;0.70;0.60;;;16.80;56.90;;;;;;5046895;28;20213;-55
2020/12/31 02:14:28;;;;;;;0.93;0.40;;;16.80;56.90;;;;;;5040626;28;20203;-56
2020/12/31 02:16:55;;;;;;;0.50;0.50;;;16.80;56.90;;;;;;5047317;28;20218;-56
2020/12/31 02:19:22;;;;;;;0.60;0.50;;;16.80;56.90;;;;;;5040977;28;20198;-56
2020/12/31 02:21:49;;;;;;;0.70;0.60;;;16.80;57.00;;;;;;5046458;28;20195;-56
2020/12/31 02:24:17;;;;;;;0.80;0.60;;;16.70;57.00;;;;;;5040023;28;20597;-57
2020/12/31 02:26:45;;;;;;;0.50;0.50;;;16.70;57.00;;;;;;5047235;28;20221;-56
2020/12/31 02:29:14;;;;;;;0.60;0.60;;;16.80;57.00;;;;;;5039647;28;20240;-56
2020/12/31 02:31:41;;;;;;;1.33;0.70;;;16.70;57.10;;;;;;5048500;28;20218;-56
2020/12/31 02:34:08;;;;;;;0.83;0.40;;;16.70;57.10;;;;;;5039020;28;20241;-56
2020/12/31 02:36:37;;;;;;;0.70;0.50;;;16.70;57.20;;;;;;5048163;28;20202;-54
2020/12/31 02:39:08;;;;;;;0.57;0.30;;;16.70;57.00;;;;;;5041760;28;20217;-56
2020/12/31 02:41:35;;;;;;;1.30;0.50;;;16.70;57.00;;;;;;5047371;28;20206;-56
2020/12/31 02:44:03;;;;;;;1.10;0.60;;;16.70;57.10;;;;;;5046530;28;20207;-56
2020/12/31 02:46:30;;;;;;;1.27;0.60;;;16.70;57.20;;;;;;5040049;28;20210;-56
2020/12/31 02:48:56;;;;;;;0.63;0.40;;;16.70;57.20;;;;;;5047554;28;20206;-54
2020/12/31 02:51:22;;;;;;;1.40;0.60;;;16.60;57.20;;;;;;5036358;28;20206;-55
2020/12/31 02:53:49;;;;;;;0.60;0.60;;;16.60;57.20;;;;;;5048055;28;20190;-56
2020/12/31 02:56:17;;;;;;;0.60;0.50;;;16.60;57.20;;;;;;5039867;28;21109;-56
2020/12/31 02:58:45;;;;;;;1.00;0.50;;;16.60;57.20;;;;;;5046412;28;20241;-56
2020/12/31 03:01:11;;;;;;;0.40;0.33;;;16.60;57.20;;;;;;5040148;28;20198;-56
2020/12/31 03:03:38;;;;;;;0.70;0.40;;;16.60;57.30;;;;;;5044928;28;20202;-56
2020/12/31 03:06:06;;;;;;;0.50;0.50;;;16.60;57.20;;;;;;5040096;28;20268;-56
2020/12/31 03:08:33;;;;;;;0.77;0.50;;;16.60;57.30;;;;;;5045284;28;20222;-56
2020/12/31 03:11:00;;;;;;;0.73;0.50;;;16.60;57.30;;;;;;5037607;28;20214;-56
2020/12/31 03:13:27;;;;;;;0.77;0.50;;;16.60;57.40;;;;;;5046079;28;20197;-56
2020/12/31 03:15:55;;;;;;;0.93;0.60;;;16.60;57.40;;;;;;5036620;28;20960;-56
2020/12/31 03:18:22;;;;;;;0.33;0.27;;;16.60;57.40;;;;;;5048344;28;20233;-56
2020/12/31 03:20:52;;;;;;;0.57;0.40;;;16.50;57.40;;;;;;5041944;28;20593;-57
2020/12/31 03:23:18;;;;;;;2.17;0.33;;;16.50;57.40;;;;;;5047599;28;20554;-55
2020/12/31 03:25:45;;;;;;;0.70;0.50;;;16.50;57.40;;;;;;5047824;28;20789;-56
2020/12/31 03:28:15;;;;;;;1.93;0.50;;;16.50;57.40;;;;;;5035866;28;20197;-56
2020/12/31 03:30:43;;;;;;;0.40;0.40;;;16.50;57.40;;;;;;5047775;28;20235;-56
2020/12/31 03:33:12;;;;;;;0.70;0.30;;;16.50;57.40;;;;;;5037663;28;20274;-55
2020/12/31 03:35:47;;;;;;;0.70;0.30;;;16.50;57.40;;;;;;5047671;28;20510;-56
2020/12/31 03:38:15;;;;;;;0.67;0.40;;;16.50;57.40;;;;;;5019174;28;20204;-54
2020/12/31 03:40:41;;;;;;;0.47;0.20;;;16.50;57.50;;;;;;5045481;28;20194;-55
2020/12/31 03:43:09;;;;;;;0.93;0.23;;;16.40;57.40;;;;;;5036571;28;20215;-56
2020/12/31 03:45:36;;;;;;;0.73;0.40;;;16.40;57.40;;;;;;5045816;28;20587;-56
2020/12/31 03:48:03;;;;;;;0.40;0.30;;;16.40;57.40;;;;;;5038763;28;20203;-56
2020/12/31 03:50:30;;;;;;;1.50;0.30;;;16.40;57.40;;;;;;5043123;28;20778;-56
2020/12/31 03:52:57;;;;;;;0.57;0.30;;;16.40;57.40;;;;;;5038432;28;20214;-56
2020/12/31 03:55:23;;;;;;;0.97;0.47;;;16.40;57.40;;;;;;5043508;28;20198;-56
2020/12/31 03:57:50;;;;;;;0.40;0.40;;;16.40;57.40;;;;;;5039600;28;20304;-55
2020/12/31 04:00:16;;;;;;;0.50;0.40;;;16.40;57.30;;;;;;5043592;28;20198;-56
2020/12/31 04:02:42;;;;;;;0.43;0.30;;;16.40;57.30;;;;;;5038972;28;20206;-56
2020/12/31 04:05:11;;;;;;;0.27;0.20;;;16.40;57.30;;;;;;5043093;28;20206;-55
2020/12/31 04:07:42;;;;;;;1.17;0.40;;;16.40;57.20;;;;;;5048332;28;20201;-56
2020/12/31 04:10:08;;;;;;;0.43;0.33;;;16.40;57.20;;;;;;5040716;28;20258;-56
2020/12/31 04:12:35;;;;;;;0.73;0.30;;;16.40;57.20;;;;;;5045696;28;20237;-54
2020/12/31 04:15:01;;;;;;;0.80;0.30;;;16.40;57.30;;;;;;5034109;28;20209;-56
2020/12/31 04:17:27;;;;;;;0.50;0.40;;;16.40;57.30;;;;;;5047021;28;20202;-56
2020/12/31 04:19:53;;;;;;;0.40;0.40;;;16.40;57.20;;;;;;5036942;28;20194;-54
2020/12/31 04:22:20;;;;;;;0.40;0.30;;;16.30;57.20;;;;;;5045437;28;20221;-56
2020/12/31 04:24:46;;;;;;;0.80;0.30;;;16.30;57.10;;;;;;5033925;28;20202;-55
2020/12/31 04:27:12;;;;;;;0.30;0.30;;;16.30;57.20;;;;;;5047016;28;20198;-54
2020/12/31 04:29:39;;;;;;;0.27;0.27;;;16.30;57.20;;;;;;5037963;28;20226;-54
2020/12/31 04:32:05;;;;;;;1.00;0.30;;;16.40;57.20;;;;;;5046963;28;20210;-54
2020/12/31 04:34:31;;;;;;;0.20;0.17;;;16.30;57.20;;;;;;5035865;28;20217;-56
2020/12/31 04:36:58;;;;;;;0.80;0.40;;;16.40;57.20;;;;;;5045608;28;20648;-55
2020/12/31 04:39:24;;;;;;;1.33;0.30;;;16.30;57.10;;;;;;5036386;28;20217;-54
2020/12/31 04:41:56;;;;;;;0.93;0.50;;;16.30;57.10;;;;;;5045180;28;20205;-56
2020/12/31 04:44:22;;;;;;;0.60;0.40;;;16.30;57.10;;;;;;5034184;28;20205;-56
2020/12/31 04:46:54;;;;;;;0.97;0.30;;;16.30;57.20;;;;;;5047986;28;20209;-56
2020/12/31 04:49:28;;;;;;;0.50;0.30;;;16.30;57.80;;;;;;5044542;28;20202;-56
2020/12/31 04:51:55;;;;;;;0.37;0.30;;;16.30;57.20;;;;;;5043052;28;20307;-56
2020/12/31 04:54:22;;;;;;;1.50;0.60;;;16.30;57.10;;;;;;5044692;28;20209;-56
2020/12/31 04:56:48;;;;;;;0.40;0.30;;;16.30;57.10;;;;;;5036203;28;20195;-56
2020/12/31 04:59:15;;;;;;;0.40;0.30;;;16.30;57.20;;;;;;5045219;28;20209;-55
2020/12/31 05:01:43;;;;;;;0.40;0.30;;;16.20;57.10;;;;;;5037602;28;20210;-56
2020/12/31 05:04:09;;;;;;;0.70;0.40;;;16.20;57.10;;;;;;5049985;28;20198;-56
2020/12/31 05:06:37;;;;;;;0.30;0.30;;;16.20;57.10;;;;;;5038349;28;20769;-55
2020/12/31 05:09:17;;;;;;;1.20;0.33;;;16.20;57.10;;;;;;5050840;28;20218;-56
2020/12/31 05:11:46;;;;;;;0.57;0.30;;;16.20;57.20;;;;;;5039444;28;20297;-56
2020/12/31 05:14:13;;;;;;;0.80;0.40;;;16.20;57.70;;;;;;5050462;28;20202;-56
2020/12/31 05:16:39;;;;;;;1.23;0.37;;;16.30;57.20;;;;;;5036812;28;20190;-56
2020/12/31 05:19:23;;;;;;;0.87;0.33;;;16.30;57.20;;;;;;5051499;28;20203;-56
2020/12/31 05:22:15;;;;;;;0.60;0.40;;;16.20;57.00;;;;;;5040220;28;20552;-57
2020/12/31 05:24:44;;;;;;;0.83;0.30;;;16.20;57.00;;;;;;5049481;28;20187;-56
2020/12/31 05:27:19;;;;;;;0.33;0.20;;;16.20;57.20;;;;;;5041023;28;20210;-56
2020/12/31 05:29:57;;;;;;;0.83;0.40;;;16.20;57.10;;;;;;5047809;28;20234;-56
2020/12/31 05:32:24;;;;;;;1.07;0.50;;;16.20;57.10;;;;;;5039498;28;20613;-56
2020/12/31 05:34:55;;;;;;;0.73;0.40;;;16.20;57.10;;;;;;5029175;28;20194;-56
2020/12/31 05:37:22;;;;;;;2.37;0.67;;;16.20;57.10;;;;;;5041461;28;20223;-56
2020/12/31 05:40:09;;;;;;;0.50;0.47;;;16.20;57.10;;;;;;5049427;28;20199;-56
2020/12/31 05:42:42;;;;;;;0.50;0.30;;;16.20;57.10;;;;;;5037735;28;20667;-56
2020/12/31 05:45:16;;;;;;;0.50;0.37;;;16.20;57.10;;;;;;5048861;28;21818;-56
2020/12/31 05:47:48;;;;;;;0.93;0.40;;;16.20;57.00;;;;;;5040130;28;20214;-56
2020/12/31 05:50:26;;;;;;;1.97;0.50;;;16.20;57.10;;;;;;5049115;28;20234;-56
2020/12/31 05:52:54;;;;;;;0.30;0.30;;;16.20;57.00;;;;;;5035785;28;20214;-56
2020/12/31 05:55:22;;;;;;;0.33;0.23;;;16.20;57.00;;;;;;5049960;28;20206;-56
2020/12/31 05:57:55;;;;;;;0.50;0.50;;;16.20;57.10;;;;;;5038063;28;20187;-56
2020/12/31 06:00:30;;;;;;;0.53;0.47;;;16.20;57.00;;;;;;5048500;28;20206;-56
2020/12/31 06:02:58;;;;;;;0.70;0.40;;;16.20;57.00;;;;;;5037684;28;20214;-56
2020/12/31 06:05:25;;;;;;;1.33;0.60;;;16.20;57.40;;;;;;5049190;28;20688;-56
2020/12/31 06:07:56;;;;;;;0.37;0.30;;;16.20;56.90;;;;;;5037102;28;20838;-56
2020/12/31 06:10:22;;;;;;;0.73;0.50;;;16.20;57.00;;;;;;5045817;28;20202;-55
2020/12/31 06:12:53;;;;;;;0.70;0.53;;;16.20;56.90;;;;;;5045863;28;20206;-54
2020/12/31 06:15:23;;;;;;;0.60;0.50;;;16.20;57.00;;;;;;5022239;28;20199;-55
2020/12/31 06:17:51;;;;;;;0.60;0.37;;;16.20;57.00;;;;;;5048301;28;20201;-54
2020/12/31 06:20:19;;;;;;;0.50;0.30;;;16.20;57.00;;;;;;5040364;28;20294;-54
2020/12/31 06:22:59;;;;;;;1.30;0.40;;;16.20;57.10;;;;;;5045399;28;20713;-56
2020/12/31 06:25:46;;;;;;;1.13;0.50;;;16.20;57.10;;;;;;5037334;28;20213;-55
2020/12/31 06:28:21;;;;;;;0.87;0.40;;;16.10;57.10;;;;;;5046512;28;20214;-56
2020/12/31 06:30:52;;;;;;;0.70;0.40;;;16.20;57.10;;;;;;5039768;28;20241;-56
2020/12/31 06:33:40;;;;;;;1.00;0.57;;;16.10;57.00;;;;;;5048918;28;20201;-55
2020/12/31 06:36:07;;;;;;;0.40;0.40;;;16.10;56.90;;;;;;5039263;28;20203;-55
2020/12/31 06:38:39;;;;;;;0.60;0.50;;;16.10;57.00;;;;;;5047112;28;20194;-55
2020/12/31 06:41:35;;;;;;;0.77;0.50;;;16.10;56.90;;;;;;5038980;28;20198;-56
2020/12/31 06:44:10;;;;;;;0.73;0.53;;;16.10;57.00;;;;;;5047885;28;20848;-56
2020/12/31 06:46:43;;;;;;;0.80;0.70;;;16.10;57.00;;;;;;5039237;28;20218;-54
2020/12/31 06:49:11;;;;;;;0.77;0.70;;;16.10;56.90;;;;;;5045141;28;20198;-56
2020/12/31 06:51:38;;;;;;;0.70;0.70;;;16.10;56.90;;;;;;5038262;28;20233;-56
2020/12/31 06:54:05;;;;;;;1.00;0.80;;;16.10;56.80;;;;;;5045801;28;20196;-56
2020/12/31 06:56:50;;;;;;;1.17;0.90;;;16.10;57.00;;;;;;5038839;28;20430;-56
2020/12/31 06:59:27;;;;;;;1.97;0.57;;;16.10;56.90;;;;;;5047584;28;20198;-56
2020/12/31 07:01:55;;;;;;;0.83;0.77;;;16.10;56.90;;;;;;5036078;28;20209;-56
2020/12/31 07:04:29;;;;;;;2.30;0.90;;;16.10;56.90;;;;;;5049165;28;20217;-55
2020/12/31 07:06:56;;;;;;;0.83;0.83;;;16.10;56.90;;;;;;5036761;28;20933;-55
2020/12/31 07:09:33;;;;;;;1.37;1.10;;;16.10;56.90;;;;;;5045765;28;20773;-56
2020/12/31 07:12:07;;;;;;;1.87;0.90;;;16.10;56.80;;;;;;5035928;28;20578;-56
2020/12/31 07:14:35;;;;;;;1.07;0.70;;;16.10;56.80;;;;;;5047757;28;20182;-56
2020/12/31 07:17:05;;;;;;;1.07;0.97;;;16.10;56.80;;;;;;5038509;28;20260;-55
2020/12/31 07:19:38;;;;;;;1.60;1.10;;;16.10;56.80;;;;;;5046018;28;20746;-55
2020/12/31 07:22:11;;;;;;;1.37;1.13;;;16.10;56.90;;;;;;5018777;28;20218;-55
2020/12/31 07:24:52;;;;;;;1.40;1.13;;;16.10;57.00;;;;;;5047973;28;20561;-56
2020/12/31 07:27:20;;;;;;;0.87;0.83;;;16.10;56.90;;;;;;5032783;28;20221;-56
2020/12/31 07:30:01;;;;;;;1.50;1.03;;;16.10;57.00;;;;;;5044632;28;20238;-56
2020/12/31 07:32:53;;;;;;;1.07;0.97;;;16.10;57.00;;;;;;5039996;28;20222;-56
2020/12/31 07:35:34;;;;;;;1.10;1.10;;;16.00;56.90;;;;;;5045821;28;20555;-55
2020/12/31 07:38:11;;;;;;;0.80;0.80;;;16.00;57.00;;;;;;5036562;28;20213;-56
2020/12/31 07:40:46;;;;;;;1.13;1.03;;;16.10;57.00;;;;;;5046627;28;20202;-55
2020/12/31 07:43:24;;;;;;;0.83;0.83;;;16.10;57.00;;;;;;5035604;28;20197;-57
2020/12/31 07:46:04;;;;;;;1.13;1.00;;;16.00;56.90;;;;;;5051260;28;20186;-54
2020/12/31 07:48:31;;;;;;;0.87;0.87;;;16.00;56.90;;;;;;5016833;28;20558;-55
2020/12/31 07:51:07;;;;;;;1.87;1.20;;;16.00;56.90;;;;;;5054261;28;20201;-56
2020/12/31 07:53:35;;;;;;;0.90;0.80;;;16.00;56.90;;;;;;5035152;28;20203;-57
2020/12/31 07:56:06;;;;;;;1.10;0.90;;;16.00;56.90;;;;;;5038278;28;20266;-56
2020/12/31 07:58:32;;;;;;;0.97;0.97;;;16.00;56.80;;;;;;5020727;28;20190;-57
2020/12/31 08:01:06;;;;;;;1.23;1.03;;;16.00;56.80;;;;;;5054964;28;20206;-53
2020/12/31 08:03:34;;;;;;;1.10;1.00;;;16.00;56.90;;;;;;5037542;28;20198;-57
2020/12/31 08:06:03;;;;;;;1.57;1.10;;;16.00;56.80;;;;;;5051276;28;20252;-57
2020/12/31 08:08:30;;;;;;;0.93;0.93;;;16.00;56.90;;;;;;5036743;28;20217;-57
2020/12/31 08:10:57;;;;;;;0.90;0.70;;;16.00;56.80;;;;;;5046068;28;20205;-57
2020/12/31 08:13:23;;;;;;;1.13;1.03;;;16.00;56.80;;;;;;5037179;28;20662;-57
2020/12/31 08:15:54;;;;;;;1.07;0.93;;;16.00;56.80;;;;;;5047116;28;20191;-57
2020/12/31 08:18:22;;;;;;;1.57;1.07;;;16.00;57.40;;;;;;5033702;28;20195;-57
2020/12/31 08:20:50;;;;;;;1.73;1.17;;;16.00;56.80;;;;;;5047365;28;20190;-57
2020/12/31 08:23:41;;;;;;;1.10;1.03;;;16.00;57.40;;;;;;5045218;28;20213;-57
2020/12/31 08:26:09;;;;;;;1.10;1.00;;;16.00;56.70;;;;;;5046142;28;20206;-56
2020/12/31 08:28:38;;;;;;;1.00;0.90;;;16.00;56.80;;;;;;5039376;28;20194;-56
2020/12/31 08:31:11;;;;;;;0.90;0.80;;;16.00;56.80;;;;;;5040517;28;20887;-57
2020/12/31 08:33:39;;;;;;;1.00;0.90;;;16.00;56.70;;;;;;5045116;28;20195;-56
2020/12/31 08:36:08;;;;;;;1.10;1.00;;;16.00;56.70;;;;;;5035522;28;20199;-57
2020/12/31 08:38:38;;;;;;;1.20;1.10;;;15.90;56.70;;;;;;5045508;28;20558;-56
2020/12/31 08:41:07;;;;;;;1.03;0.93;;;16.00;56.70;;;;;;5035712;28;20206;-55
2020/12/31 08:43:40;;;;;;;1.10;1.00;;;16.00;56.70;;;;;;5043958;28;20199;-56
2020/12/31 08:46:08;;;;;;;1.10;1.00;;;15.90;56.60;;;;;;5037831;28;20204;-55
2020/12/31 08:48:37;;;;;;;1.10;1.00;;;15.90;56.60;;;;;;5046551;28;20194;-55
2020/12/31 08:51:14;;;;;;;1.20;1.10;;;15.90;56.60;;;;;;5035672;28;20540;-56
2020/12/31 08:53:57;;;;;;;1.20;1.10;;;15.90;56.50;;;;;;5044587;28;20263;-55
2020/12/31 08:56:28;;;;;;;1.20;1.10;;;15.90;56.50;;;;;;5032573;28;20674;-57
2020/12/31 08:59:14;;;;;;;1.40;1.30;;;15.90;56.40;;;;;;5043301;28;20741;-57
2020/12/31 09:01:42;;;;;;;1.20;1.10;;;15.90;56.40;;;;;;5038177;28;20216;-57
2020/12/31 09:04:17;;;;;;;1.07;1.07;;;15.90;57.00;;;;;;5046563;28;20558;-57
2020/12/31 09:06:45;;;;;;;0.80;0.80;;;15.90;56.40;;;;;;5036957;28;20786;-56
2020/12/31 09:09:16;;;;;;;0.77;0.77;;;15.90;56.40;;;;;;5039598;28;20654;-56
2020/12/31 09:11:59;;;;;;;1.20;1.10;;;15.90;56.40;;;;;;5031546;28;20225;-56
2020/12/31 09:14:26;;;;;;;1.50;1.07;;;15.90;56.40;;;;;;5041615;28;20206;-54
2020/12/31 09:16:53;;;;;;;1.67;1.07;;;15.90;56.50;;;;;;5027708;28;20203;-55
2020/12/31 09:19:19;;;;;;;2.70;1.27;;;15.90;56.70;;;;;;5039534;28;20208;-54
2020/12/31 09:21:46;;;;;;;1.27;0.90;;;15.90;56.70;;;;;;5035876;28;20199;-56
2020/12/31 09:24:22;;;;;;;1.20;1.00;;;15.90;57.00;;;;;;5045490;28;20199;-56
2020/12/31 09:26:58;;;;;;;2.80;1.10;;;15.90;57.30;;;;;;5033850;28;20564;-54
2020/12/31 09:29:29;;;;;;;3.63;1.37;;;15.90;57.10;;;;;;5045916;28;20287;-56
2020/12/31 09:31:56;;;;;;;6.80;1.60;;;15.90;57.50;;;;;;5037329;28;20324;-56
2020/12/31 09:34:22;;;;;;;4.53;1.60;;;15.90;57.70;;;;;;5044398;28;20195;-54
2020/12/31 09:36:49;;;;;;;5.80;1.20;;;15.90;57.40;;;;;;5036426;28;20207;-56
2020/12/31 09:39:15;;;;;;;5.20;1.30;;;15.90;57.20;;;;;;5043262;28;20206;-55
2020/12/31 09:41:41;;;;;;;2.13;1.37;;;15.90;57.30;;;;;;5038133;28;20210;-56
2020/12/31 09:44:08;;;;;;;1.97;1.00;;;15.90;57.10;;;;;;5042324;28;20217;-57
2020/12/31 09:46:34;;;;;;;4.03;1.50;;;15.90;57.00;;;;;;5045010;28;20214;-57
2020/12/31 09:49:01;;;;;;;4.83;1.33;;;15.90;56.90;;;;;;5035028;28;20256;-57
2020/12/31 09:51:27;;;;;;;1.53;0.90;;;15.90;56.90;;;;;;5045682;28;20225;-57
2020/12/31 09:53:53;;;;;;;3.07;1.10;;;15.90;56.90;;;;;;5037086;28;20206;-57
2020/12/31 09:56:20;;;;;;;1.83;0.83;;;15.90;56.80;;;;;;5049922;28;20203;-55
2020/12/31 09:58:46;;;;;;;2.57;1.00;;;15.90;56.80;;;;;;5039972;28;20195;-53
2020/12/31 10:01:14;;;;;;;5.20;1.00;;;15.90;56.70;;;;;;5044344;28;20665;-56
2020/12/31 10:03:41;;;;;;;0.80;0.70;;;15.90;56.80;;;;;;5038252;28;20656;-55
2020/12/31 10:06:07;;;;;;;5.40;0.93;;;15.90;56.80;;;;;;5048826;28;20194;-53
2020/12/31 10:08:34;;;;;;;1.33;0.83;;;15.90;56.80;;;;;;5041286;28;20209;-55
2020/12/31 10:11:01;;;;;;;1.10;1.00;;;15.90;56.80;;;;;;5046326;28;20224;-57
2020/12/31 10:13:28;;;;;;;3.00;0.90;;;15.90;56.70;;;;;;5039223;28;20229;-56
2020/12/31 10:15:58;;;;;;;2.00;0.90;;;15.90;56.80;;;;;;5044453;28;20203;-56
2020/12/31 10:18:24;;;;;;;1.60;0.60;;;15.90;56.70;;;;;;5036518;28;20202;-55
2020/12/31 10:20:52;;;;;;;2.17;0.77;;;15.90;56.70;;;;;;5048890;28;20201;-56
2020/12/31 10:23:18;;;;;;;1.80;0.90;;;15.90;56.70;;;;;;5044808;28;20201;-54
2020/12/31 10:25:52;;;;;;;2.30;1.00;;;15.90;56.70;;;;;;5041491;28;20203;-56
2020/12/31 10:28:19;;;;;;;2.17;1.00;;;15.90;56.60;;;;;;5047277;28;20221;-54
2020/12/31 10:30:47;;;;;;;2.20;1.03;;;15.90;56.60;;;;;;5035934;28;20246;-54
2020/12/31 10:33:13;;;;;;;3.27;1.00;;;15.90;56.60;;;;;;5045757;28;20214;-54
2020/12/31 10:35:39;;;;;;;2.30;1.30;;;15.90;56.50;;;;;;5038055;28;20209;-56
2020/12/31 10:38:05;;;;;;;0.80;0.80;;;15.90;56.40;;;;;;5046615;28;20213;-56
2020/12/31 10:40:32;;;;;;;1.83;0.77;;;15.90;56.40;;;;;;5038200;28;20195;-56
2020/12/31 10:42:58;;;;;;;1.57;1.13;;;15.90;56.30;;;;;;5051190;28;20662;-54
2020/12/31 10:45:25;;;;;;;1.57;1.10;;;15.90;56.30;;;;;;5020598;28;20583;-56
2020/12/31 10:47:51;;;;;;;1.47;1.00;;;15.90;56.20;;;;;;5045836;28;20665;-53
2020/12/31 10:50:18;;;;;;;3.20;1.33;;;15.90;56.30;;;;;;5036601;28;20210;-55
2020/12/31 10:52:44;;;;;;;2.17;1.60;;;15.90;56.20;;;;;;5045093;28;20225;-56
2020/12/31 10:55:10;;;;;;;2.53;1.73;;;15.90;56.20;;;;;;5036473;28;20199;-58
2020/12/31 10:57:36;;;;;;;2.23;1.80;;;15.90;56.10;;;;;;5047877;28;20237;-55
2020/12/31 11:00:06;;;;;;;2.97;1.70;;;15.90;56.50;;;;;;5020184;28;20198;-56
2020/12/31 11:02:32;;;;;;;7.73;1.70;;;15.90;56.60;;;;;;5046200;28;20197;-54
2020/12/31 11:04:59;;;;;;;5.70;2.07;;;16.00;56.90;;;;;;5048191;28;20210;-54
2020/12/31 11:07:25;;;;;;;9.87;2.23;;;16.00;57.80;;;;;;5038274;28;20206;-55
2020/12/31 11:09:51;;;;;;;6.67;2.53;;;16.00;58.40;;;;;;5047635;28;20658;-57
2020/12/31 11:12:17;;;;;;;6.03;2.23;;;16.00;60.00;;;;;;5038263;28;20724;-55
2020/12/31 11:14:44;;;;;;;9.40;2.20;;;16.10;59.30;;;;;;5047653;28;20207;-55
2020/12/31 11:17:10;;;;;;;4.50;2.53;;;16.00;59.00;;;;;;5040463;28;20192;-54
2020/12/31 11:19:36;;;;;;;5.60;1.90;;;16.00;59.00;;;;;;5045651;28;20203;-55
2020/12/31 11:22:02;;;;;;;3.70;1.93;;;16.00;59.00;;;;;;5037926;28;20202;-55
2020/12/31 11:24:28;;;;;;;7.00;2.03;;;16.00;58.90;;;;;;5044650;28;20217;-55
2020/12/31 11:26:55;;;;;;;5.33;2.10;;;16.10;59.20;;;;;;5033942;28;20214;-55
2020/12/31 11:29:21;;;;;;;5.30;1.97;;;16.00;59.00;;;;;;5047629;28;20234;-54
2020/12/31 11:31:47;;;;;;;3.30;1.90;;;16.00;59.10;;;;;;5037388;28;20218;-55
2020/12/31 11:34:26;;;;;;;3.80;1.73;;;16.00;60.10;;;;;;5044013;28;20618;-55
2020/12/31 11:36:52;;;;;;;3.33;1.77;;;16.10;59.90;;;;;;5037788;28;20194;-56
2020/12/31 11:39:18;;;;;;;5.03;1.70;;;16.10;60.20;;;;;;5047433;28;20210;-56
2020/12/31 11:41:45;;;;;;;2.90;1.43;;;16.20;60.40;;;;;;5034611;28;20218;-55
2020/12/31 11:44:11;;;;;;;6.20;1.70;;;16.20;60.70;;;;;;5043806;28;20697;-55
2020/12/31 11:46:37;;;;;;;2.10;1.47;;;16.20;60.80;;;;;;5045703;28;20218;-54
2020/12/31 11:49:03;;;;;;;2.80;1.60;;;16.30;61.00;;;;;;5038185;28;20210;-54
2020/12/31 11:51:30;;;;;;;3.87;1.57;;;16.30;61.20;;;;;;5035394;28;20212;-54
2020/12/31 11:53:57;;;;;;;2.10;1.37;;;16.30;61.20;;;;;;5035814;28;20216;-53
2020/12/31 11:56:24;;;;;;;1.77;1.67;;;16.30;61.10;;;;;;5047825;28;20202;-55
2020/12/31 11:58:50;;;;;;;2.73;1.50;;;16.30;61.10;;;;;;5037439;28;20206;-56
2020/12/31 12:01:17;;;;;;;1.60;1.50;;;16.20;60.80;;;;;;5046897;28;20214;-56
2020/12/31 12:03:44;;;;;;;2.17;1.33;;;16.20;61.40;;;;;;5033835;28;20572;-57
2020/12/31 12:06:11;;;;;;;1.97;1.77;;;16.20;60.60;;;;;;5047053;28;20212;-55
2020/12/31 12:08:37;;;;;;;1.93;1.40;;;16.20;60.50;;;;;;5037282;28;21797;-56
2020/12/31 12:11:03;;;;;;;4.47;2.10;;;16.20;60.40;;;;;;5045267;28;20204;-56
2020/12/31 12:13:29;;;;;;;3.93;1.80;;;16.20;60.30;;;;;;5036630;28;20214;-55
2020/12/31 12:15:55;;;;;;;7.20;2.27;;;16.20;60.30;;;;;;5046576;28;20203;-53
2020/12/31 12:18:24;;;;;;;11.47;3.87;;;16.20;60.30;;;;;;5034733;28;20220;-55
2020/12/31 12:20:51;;;;;;;44.97;7.73;;;16.20;61.70;;;;;;5040533;28;20197;-56
2020/12/31 12:23:19;;;;;;;41.37;9.70;;;16.30;62.40;;;;;;5046693;28;20237;-56
2020/12/31 12:25:46;;;;;;;40.43;8.87;;;16.40;63.60;;;;;;5040253;28;20659;-55
2020/12/31 12:28:12;;;;;;;34.37;9.07;;;16.40;63.10;;;;;;5045061;28;20587;-57
2020/12/31 12:30:39;;;;;;;37.63;9.73;;;16.50;63.00;;;;;;5034629;28;20230;-56
2020/12/31 12:33:06;;;;;;;32.70;9.27;;;16.50;63.20;;;;;;5046888;28;20222;-56
2020/12/31 12:35:33;;;;;;;29.07;7.93;;;16.60;63.20;;;;;;5035058;28;20202;-56
2020/12/31 12:38:00;;;;;;;19.03;7.47;;;16.60;62.90;;;;;;5044991;28;20194;-54
2020/12/31 12:40:27;;;;;;;20.23;7.13;;;16.70;63.00;;;;;;5035808;28;20194;-55
2020/12/31 12:42:53;;;;;;;23.53;7.50;;;16.60;63.90;;;;;;5045013;28;20225;-54
2020/12/31 12:45:19;;;;;;;18.67;6.53;;;16.60;63.90;;;;;;5036998;28;20214;-54
2020/12/31 12:47:46;;;;;;;13.43;5.83;;;16.60;62.90;;;;;;5046176;28;20591;-56
2020/12/31 12:50:15;;;;;;;12.67;5.27;;;16.60;62.70;;;;;;5037555;28;20203;-53
2020/12/31 12:52:41;;;;;;;14.43;6.37;;;16.60;62.90;;;;;;5043097;28;20217;-53
2020/12/31 12:55:08;;;;;;;13.43;6.03;;;16.60;62.60;;;;;;5036805;28;20207;-55